Dombay, Russia
Current Conditions -  °F | °C
As of 4:30 AM on Sunday 21 Dec 2014 (Local Time) from URSS Reporting Station
Broken Clouds Broken Clouds  
Wind Chill: 42°   Ceiling: 5400
Heat Index: 45°   Visibility: 6mi
Dew Point: 41°   Wind: 4mph
Humidity: 87%   Direction: 80°E
Pressure: 30.09"   Gusts: NA
Location:  43.29°N, 41.62°E
Report Text: URSS 210130Z 08002MPS 9999 SCT013 BKN054 07/05 Q1019 NOSIG RMKR02/06003MPS MT OBSC QFE763 06000070 02//////
Loading
Personal Weather Stations






























Interactive Weather Map New forecast layout! Learn more

10-Day Weather Forecast

Advertisements
Track Severe Weather on mobile